createdAt,value
2018-06-27T00:00:45.472Z,37.60
2018-06-27T00:01:45.496Z,46.30
2018-06-27T00:02:45.420Z,36.00
2018-06-27T00:03:45.396Z,48.40
2018-06-27T00:04:45.371Z,41.80
2018-06-27T00:05:45.346Z,41.50
2018-06-27T00:06:45.329Z,35.60
2018-06-27T00:07:45.294Z,42.10
2018-06-27T00:08:45.268Z,38.80
2018-06-27T00:09:45.244Z,41.70
2018-06-27T00:10:45.216Z,37.70
2018-06-27T00:11:45.196Z,37.30
2018-06-27T00:12:45.171Z,49.90
2018-06-27T00:13:45.143Z,42.00
2018-06-27T00:14:45.122Z,47.50
2018-06-27T00:15:45.095Z,50.80
2018-06-27T00:16:45.066Z,40.00
2018-06-27T00:17:45.046Z,42.50
2018-06-27T00:18:45.016Z,44.30
2018-06-27T00:19:44.994Z,39.90
2018-06-27T00:20:44.963Z,44.20
2018-06-27T00:21:44.938Z,48.90
2018-06-27T00:22:44.916Z,43.70
2018-06-27T00:23:44.889Z,39.90
2018-06-27T00:24:44.865Z,42.70
2018-06-27T00:25:44.839Z,37.10
2018-06-27T00:26:44.813Z,46.30
2018-06-27T00:27:44.787Z,43.50
2018-06-27T00:28:44.761Z,45.80
2018-06-27T00:29:44.735Z,46.30
2018-06-27T00:30:44.710Z,40.10
2018-06-27T00:31:44.687Z,44.80
2018-06-27T00:32:44.665Z,48.10
2018-06-27T00:33:44.654Z,42.90
2018-06-27T00:34:44.613Z,44.40
2018-06-27T00:35:44.586Z,44.00
2018-06-27T00:36:44.561Z,48.20
2018-06-27T00:37:44.543Z,44.50
2018-06-27T00:38:44.510Z,44.20
2018-06-27T00:39:44.482Z,43.70
2018-06-27T00:40:44.464Z,47.60
2018-06-27T00:41:44.437Z,46.60
2018-06-27T00:42:45.612Z,48.70
2018-06-27T00:43:44.389Z,43.40
2018-06-27T00:44:44.360Z,43.40
2018-06-27T00:45:44.330Z,48.50
2018-06-27T00:46:44.315Z,38.90
2018-06-27T00:47:44.279Z,43.90
2018-06-27T00:48:44.255Z,49.50
2018-06-27T00:49:44.228Z,53.10
2018-06-27T00:50:44.205Z,52.00
2018-06-27T00:51:44.178Z,48.40
2018-06-27T00:52:44.153Z,44.90
2018-06-27T00:53:44.126Z,44.50
2018-06-27T00:54:44.106Z,40.30
2018-06-27T00:55:44.076Z,43.20
2018-06-27T00:56:44.053Z,49.60
2018-06-27T00:57:44.027Z,43.80
2018-06-27T00:58:44.010Z,47.20
2018-06-27T00:59:43.973Z,52.20
2018-06-27T01:00:43.948Z,48.70
2018-06-27T01:01:43.926Z,47.90
2018-06-27T01:02:43.910Z,47.50
2018-06-27T01:03:43.874Z,40.80
2018-06-27T01:04:43.849Z,39.90
2018-06-27T01:05:43.823Z,42.20
2018-06-27T01:06:43.799Z,43.10
2018-06-27T01:07:43.772Z,49.80
2018-06-27T01:08:43.744Z,55.20
2018-06-27T01:09:43.718Z,40.40
2018-06-27T01:10:43.758Z,47.40
2018-06-27T01:11:43.669Z,41.40
2018-06-27T01:12:43.653Z,51.20
2018-06-27T01:13:43.619Z,52.90
2018-06-27T01:14:43.596Z,55.00
2018-06-27T01:15:43.566Z,51.20
2018-06-27T01:16:43.541Z,51.10
2018-06-27T01:17:43.667Z,49.30
2018-06-27T01:18:43.488Z,55.00
2018-06-27T01:19:43.465Z,53.00
2018-06-27T01:20:43.440Z,50.50
2018-06-27T01:21:43.413Z,56.30
2018-06-27T01:22:43.389Z,44.20
2018-06-27T01:23:43.364Z,50.20
2018-06-27T01:24:43.338Z,49.10
2018-06-27T01:25:43.317Z,47.50
2018-06-27T01:26:43.286Z,52.20
2018-06-27T01:27:43.261Z,55.30
2018-06-27T01:28:43.232Z,51.80
2018-06-27T01:29:43.210Z,53.30
2018-06-27T01:30:43.189Z,49.80
2018-06-27T01:31:43.159Z,53.90
2018-06-27T01:32:43.133Z,44.90
2018-06-27T01:33:43.109Z,49.70
2018-06-27T01:34:43.081Z,48.50
2018-06-27T01:35:43.059Z,45.30
2018-06-27T01:36:43.030Z,54.50
2018-06-27T01:37:43.001Z,56.60
2018-06-27T01:38:42.977Z,42.10
2018-06-27T01:39:42.953Z,51.50
2018-06-27T01:40:42.927Z,52.30
2018-06-27T01:41:42.904Z,59.40
2018-06-27T01:42:42.875Z,58.80
2018-06-27T01:43:42.852Z,54.70
2018-06-27T01:44:42.826Z,46.90
2018-06-27T01:45:42.800Z,52.60
2018-06-27T01:46:42.779Z,60.40
2018-06-27T01:47:42.747Z,50.60
2018-06-27T01:48:42.722Z,55.90
2018-06-27T01:49:42.695Z,48.60
2018-06-27T01:50:42.671Z,50.50
2018-06-27T01:51:42.647Z,56.50
2018-06-27T01:52:42.630Z,55.60
2018-06-27T01:53:42.594Z,52.50
2018-06-27T01:54:42.570Z,49.70
2018-06-27T01:55:42.549Z,50.00
2018-06-27T01:56:42.523Z,57.00
2018-06-27T01:57:42.494Z,49.10
2018-06-27T01:58:42.467Z,55.80
2018-06-27T01:59:42.440Z,48.60
2018-06-27T02:00:42.414Z,50.40
2018-06-27T02:01:42.388Z,47.10
2018-06-27T02:02:42.362Z,53.70
2018-06-27T02:03:42.338Z,54.80
2018-06-27T02:04:42.318Z,54.20
2018-06-27T02:05:42.288Z,59.00
2018-06-27T02:06:42.266Z,50.50
2018-06-27T02:07:42.235Z,48.20
2018-06-27T02:08:42.211Z,52.80
2018-06-27T02:09:42.182Z,54.10
2018-06-27T02:10:42.157Z,60.50
2018-06-27T02:11:42.132Z,66.10
2018-06-27T02:12:42.108Z,67.40
2018-06-27T02:13:42.079Z,59.80
2018-06-27T02:14:42.054Z,52.90
2018-06-27T02:15:42.034Z,48.50
2018-06-27T02:16:42.007Z,56.40
2018-06-27T02:17:41.979Z,51.50
2018-06-27T02:18:41.953Z,54.90
2018-06-27T02:19:41.926Z,55.90
2018-06-27T02:20:41.900Z,47.80
2018-06-27T02:21:41.874Z,56.10
2018-06-27T02:22:41.849Z,62.70
2018-06-27T02:23:41.824Z,55.40
2018-06-27T02:24:41.800Z,59.90
2018-06-27T02:25:41.773Z,59.90
2018-06-27T02:26:41.748Z,61.20
2018-06-27T02:27:41.873Z,61.70
2018-06-27T02:28:41.697Z,58.40
2018-06-27T02:29:41.669Z,58.90
2018-06-27T02:30:41.645Z,53.20
2018-06-27T02:31:41.617Z,52.60
2018-06-27T02:32:41.595Z,53.20
2018-06-27T02:33:41.571Z,58.50
2018-06-27T02:34:41.603Z,47.60
2018-06-27T02:35:41.517Z,59.70
2018-06-27T02:36:41.491Z,55.30
2018-06-27T02:37:41.478Z,55.40
2018-06-27T02:38:41.441Z,56.10
2018-06-27T02:39:41.426Z,62.00
2018-06-27T02:40:41.389Z,49.40
2018-06-27T02:41:41.360Z,57.50
2018-06-27T02:42:41.346Z,50.40
2018-06-27T02:43:41.321Z,59.80
2018-06-27T02:44:41.283Z,58.30
2018-06-27T02:45:41.257Z,55.90
2018-06-27T02:46:41.232Z,53.00
2018-06-27T02:47:41.209Z,48.80
2018-06-27T02:48:41.183Z,57.30
2018-06-27T02:49:41.213Z,49.60
2018-06-27T02:50:41.131Z,50.20
2018-06-27T02:51:41.105Z,49.60
2018-06-27T02:52:41.079Z,51.70
2018-06-27T02:53:41.061Z,52.20
2018-06-27T02:54:41.031Z,47.40
2018-06-27T02:55:41.008Z,49.00
2018-06-27T02:56:40.982Z,50.20
2018-06-27T02:57:40.962Z,61.50
2018-06-27T02:58:40.925Z,54.30
2018-06-27T02:59:40.902Z,55.50
2018-06-27T03:00:40.876Z,54.80
2018-06-27T03:01:40.851Z,48.80
2018-06-27T03:02:40.841Z,47.20
2018-06-27T03:03:40.798Z,54.30
2018-06-27T03:04:40.772Z,50.90
2018-06-27T03:05:40.749Z,50.80
2018-06-27T03:06:40.720Z,47.40
2018-06-27T03:07:40.698Z,50.70
2018-06-27T03:08:40.672Z,48.90
2018-06-27T03:09:40.645Z,48.00
2018-06-27T03:10:40.624Z,50.50
2018-06-27T03:11:40.592Z,58.10
2018-06-27T03:12:40.568Z,52.50
2018-06-27T03:13:40.542Z,56.80
2018-06-27T03:14:40.518Z,50.00
2018-06-27T03:15:40.496Z,49.40
2018-06-27T03:16:40.468Z,55.10
2018-06-27T03:17:40.443Z,53.40
2018-06-27T03:18:40.416Z,47.20
2018-06-27T03:19:40.390Z,50.50
2018-06-27T03:20:40.364Z,54.50
2018-06-27T03:21:40.338Z,50.50
2018-06-27T03:22:40.315Z,52.40
2018-06-27T03:23:40.290Z,46.10
2018-06-27T03:24:40.265Z,45.40
2018-06-27T03:25:40.239Z,56.10
2018-06-27T03:26:40.213Z,52.50
2018-06-27T03:27:40.190Z,46.30
2018-06-27T03:28:40.163Z,53.10
2018-06-27T03:29:40.141Z,48.70
2018-06-27T03:30:40.110Z,50.10
2018-06-27T03:31:40.085Z,49.60
2018-06-27T03:32:40.060Z,48.40
2018-06-27T03:33:40.095Z,56.40
2018-06-27T03:34:40.013Z,52.40
2018-06-27T03:35:39.989Z,45.50
2018-06-27T03:36:39.960Z,49.40
2018-06-27T03:37:39.934Z,54.10
2018-06-27T03:38:39.910Z,55.00
2018-06-27T03:39:39.883Z,47.40
2018-06-27T03:40:39.857Z,42.80
2018-06-27T03:41:39.832Z,50.00
2018-06-27T03:42:39.809Z,52.10
2018-06-27T03:43:39.783Z,52.70
2018-06-27T03:44:39.761Z,49.90
2018-06-27T03:45:39.739Z,52.60
2018-06-27T03:46:39.707Z,54.80
2018-06-27T03:47:39.682Z,53.20
2018-06-27T03:48:39.657Z,50.70
2018-06-27T03:49:39.632Z,48.30
2018-06-27T03:50:39.607Z,54.50
2018-06-27T03:51:39.579Z,49.70
2018-06-27T03:52:39.554Z,53.40
2018-06-27T03:53:39.532Z,47.50
2018-06-27T03:54:39.506Z,49.20
2018-06-27T03:55:39.480Z,52.50
2018-06-27T03:56:39.459Z,56.30
2018-06-27T03:57:39.429Z,45.70
2018-06-27T03:58:39.404Z,48.10
2018-06-27T03:59:39.379Z,45.50
2018-06-27T04:00:39.353Z,46.20
2018-06-27T04:01:39.327Z,43.30
2018-06-27T04:02:39.302Z,50.60
2018-06-27T04:03:39.277Z,46.30
2018-06-27T04:04:39.252Z,44.90
2018-06-27T04:05:39.227Z,43.40
2018-06-27T04:06:39.202Z,48.30
2018-06-27T04:07:39.179Z,49.50
2018-06-27T04:08:39.155Z,47.00
2018-06-27T04:09:39.128Z,55.40
2018-06-27T04:10:39.104Z,48.70
2018-06-27T04:11:39.098Z,43.70
2018-06-27T04:12:39.123Z,42.80
2018-06-27T04:13:39.027Z,46.10
2018-06-27T04:14:39.102Z,49.80
2018-06-27T04:15:38.980Z,51.80
2018-06-27T04:16:38.967Z,41.90
2018-06-27T04:17:38.928Z,42.00
2018-06-27T04:18:38.905Z,45.20
2018-06-27T04:19:38.880Z,48.80
2018-06-27T04:20:38.855Z,49.50
2018-06-27T04:21:38.830Z,38.80
2018-06-27T04:22:38.805Z,46.50
2018-06-27T04:23:38.785Z,43.60
2018-06-27T04:24:38.757Z,48.80
2018-06-27T04:25:38.732Z,42.10
2018-06-27T04:26:38.705Z,45.00
2018-06-27T04:27:38.681Z,40.80
2018-06-27T04:28:38.656Z,45.00
2018-06-27T04:29:38.630Z,42.60
2018-06-27T04:30:38.809Z,41.60
2018-06-27T04:31:38.584Z,44.60
2018-06-27T04:32:38.567Z,42.40
2018-06-27T04:33:38.535Z,42.40
2018-06-27T04:34:38.509Z,42.10
2018-06-27T04:35:38.487Z,40.10
2018-06-27T04:36:38.462Z,41.40
2018-06-27T04:37:38.437Z,45.40
2018-06-27T04:38:38.414Z,47.30
2018-06-27T04:39:38.387Z,48.90
2018-06-27T04:40:38.364Z,45.50
2018-06-27T04:41:38.541Z,35.50
2018-06-27T04:42:38.315Z,41.90
2018-06-27T04:43:38.292Z,38.00
2018-06-27T04:44:38.270Z,43.80
2018-06-27T04:45:38.243Z,45.90
2018-06-27T04:46:38.220Z,44.30
2018-06-27T04:47:38.194Z,40.40
2018-06-27T04:48:38.170Z,43.70
2018-06-27T04:49:38.147Z,41.00
2018-06-27T04:50:38.120Z,39.70
2018-06-27T04:51:38.099Z,39.80
2018-06-27T04:52:38.076Z,41.20
2018-06-27T04:53:38.049Z,40.50
2018-06-27T04:54:38.176Z,44.60
2018-06-27T04:55:38.007Z,35.30
2018-06-27T04:56:37.981Z,40.90
2018-06-27T04:57:37.957Z,40.50
2018-06-27T04:58:37.932Z,39.00
2018-06-27T04:59:37.907Z,38.20
2018-06-27T05:00:37.886Z,39.10
2018-06-27T05:01:37.899Z,38.30
2018-06-27T05:02:37.837Z,41.70
2018-06-27T05:03:37.813Z,42.80
2018-06-27T05:04:37.794Z,38.90
2018-06-27T05:05:37.767Z,43.20
2018-06-27T05:06:37.743Z,36.40
2018-06-27T05:07:37.722Z,39.30
2018-06-27T05:08:37.695Z,43.70
2018-06-27T05:09:37.873Z,36.30
2018-06-27T05:10:37.650Z,45.10
2018-06-27T05:11:37.670Z,44.70
2018-06-27T05:12:37.602Z,40.10
2018-06-27T05:13:37.577Z,42.70
2018-06-27T05:14:37.756Z,30.60
2018-06-27T05:15:37.534Z,34.10
2018-06-27T05:16:37.513Z,35.50
2018-06-27T05:17:37.486Z,38.10
2018-06-27T05:18:37.474Z,42.60
2018-06-27T05:19:37.442Z,38.30
2018-06-27T05:20:37.416Z,36.60
2018-06-27T05:21:37.393Z,41.10
2018-06-27T05:22:37.370Z,38.30
2018-06-27T05:23:37.398Z,42.60
2018-06-27T05:24:37.327Z,41.30
2018-06-27T05:25:37.303Z,34.80
2018-06-27T05:26:37.280Z,46.70
2018-06-27T05:27:37.378Z,41.20
2018-06-27T05:28:37.233Z,35.60
2018-06-27T05:29:37.208Z,39.60
2018-06-27T05:30:37.186Z,42.60
2018-06-27T05:31:37.165Z,39.30
2018-06-27T05:32:37.187Z,37.80
2018-06-27T05:33:37.128Z,37.40
2018-06-27T05:34:37.097Z,47.60
2018-06-27T05:35:37.073Z,42.70
2018-06-27T05:36:37.053Z,42.60
2018-06-27T05:37:37.028Z,35.40
2018-06-27T05:38:37.009Z,42.60
2018-06-27T05:39:36.984Z,33.00
2018-06-27T05:40:36.963Z,40.50
2018-06-27T05:41:36.938Z,37.50
2018-06-27T05:42:36.919Z,38.30
2018-06-27T05:43:36.896Z,34.00
2018-06-27T05:44:36.873Z,34.60
2018-06-27T05:45:36.849Z,36.60
2018-06-27T05:46:36.837Z,34.80
2018-06-27T05:47:36.804Z,34.60
2018-06-27T05:48:36.796Z,29.90
2018-06-27T05:49:36.763Z,36.10
2018-06-27T05:50:36.736Z,34.00
2018-06-27T05:51:36.783Z,37.80
2018-06-27T05:52:36.703Z,37.00
2018-06-27T05:53:36.674Z,40.90
2018-06-27T05:54:36.651Z,34.40
2018-06-27T05:55:36.630Z,38.10
2018-06-27T05:56:36.617Z,34.80
2018-06-27T05:57:36.594Z,32.20
2018-06-27T05:58:36.565Z,33.80
2018-06-27T05:59:36.548Z,31.00
2018-06-27T06:00:36.519Z,31.30
2018-06-27T06:01:36.498Z,32.30
2018-06-27T06:02:36.483Z,34.60
2018-06-27T06:03:36.458Z,33.80
2018-06-27T06:04:36.446Z,31.30
2018-06-27T06:05:36.421Z,25.60
2018-06-27T06:06:36.397Z,25.80
2018-06-27T06:07:36.382Z,27.50
2018-06-27T06:08:36.353Z,31.90
2018-06-27T06:09:36.332Z,29.30
2018-06-27T06:10:36.515Z,26.30
2018-06-27T06:11:36.354Z,27.60
2018-06-27T06:12:36.307Z,27.50
2018-06-27T06:13:36.264Z,22.20
2018-06-27T06:14:36.431Z,25.40
2018-06-27T06:15:36.247Z,31.80
2018-06-27T06:16:36.191Z,30.30
2018-06-27T06:17:36.188Z,26.60
2018-06-27T06:18:36.153Z,30.10
2018-06-27T06:19:36.129Z,27.10
2018-06-27T06:20:36.313Z,24.90
2018-06-27T06:21:36.088Z,25.30
2018-06-27T06:22:36.069Z,26.60
2018-06-27T06:23:36.051Z,27.60
2018-06-27T06:24:36.032Z,28.30
2018-06-27T06:25:36.010Z,30.40
2018-06-27T06:26:35.996Z,25.10
2018-06-27T06:27:35.975Z,24.90
2018-06-27T06:28:35.954Z,20.60
2018-06-27T06:29:35.934Z,24.00
2018-06-27T06:30:35.916Z,19.10
2018-06-27T06:31:36.097Z,19.90
2018-06-27T06:32:35.877Z,20.10
2018-06-27T06:33:35.858Z,17.40
2018-06-27T06:34:36.042Z,19.40
2018-06-27T06:35:36.027Z,19.70
2018-06-27T06:36:35.809Z,18.50
2018-06-27T06:37:35.991Z,19.10
2018-06-27T06:38:35.976Z,20.10
2018-06-27T06:39:35.753Z,16.90
2018-06-27T06:40:35.759Z,21.30
2018-06-27T06:41:35.722Z,18.40
2018-06-27T06:43:18.062Z,16.70
2018-06-27T06:44:18.045Z,20.80
2018-06-27T06:45:17.832Z,20.90
2018-06-27T06:46:17.810Z,14.00
2018-06-27T06:47:17.792Z,13.20
2018-06-27T06:48:17.776Z,13.50
2018-06-27T06:49:17.775Z,19.10
2018-06-27T06:50:17.747Z,16.10
2018-06-27T06:52:00.093Z,13.60
2018-06-27T06:53:42.231Z,17.10
2018-06-27T06:54:42.014Z,15.60
2018-06-27T06:55:41.997Z,16.80
2018-06-27T06:56:42.187Z,20.10
2018-06-27T06:57:42.168Z,15.40
2018-06-27T06:58:42.163Z,21.10
2018-06-27T06:59:42.137Z,16.70
2018-06-27T07:00:41.922Z,17.60
2018-06-27T07:01:42.114Z,16.60
2018-06-27T07:02:41.893Z,15.40
2018-06-27T07:03:42.079Z,17.30
2018-06-27T07:04:42.064Z,13.80
2018-06-27T07:05:41.848Z,14.20
2018-06-27T07:06:41.833Z,12.50
2018-06-27T07:07:41.828Z,12.20
2018-06-27T07:08:41.810Z,18.70
2018-06-27T07:09:41.791Z,12.10
2018-06-27T07:10:41.779Z,14.70
2018-06-27T07:11:41.762Z,16.00
2018-06-27T07:12:41.754Z,15.30
2018-06-27T07:13:41.734Z,16.80
2018-06-27T07:14:41.718Z,11.90
2018-06-27T07:15:41.706Z,19.30
2018-06-27T07:16:41.688Z,17.80
2018-06-27T07:17:41.677Z,17.00
2018-06-27T07:18:41.661Z,14.30
2018-06-27T07:19:41.653Z,19.80
2018-06-27T07:20:41.633Z,15.60
2018-06-27T07:21:41.624Z,19.40
2018-06-27T07:22:41.600Z,21.20
2018-06-27T07:23:41.586Z,19.90
2018-06-27T07:24:41.776Z,16.20
2018-06-27T07:25:41.554Z,15.50
2018-06-27T07:26:41.536Z,14.50
2018-06-27T07:27:41.520Z,13.00
2018-06-27T07:28:41.530Z,12.60
2018-06-27T07:29:42.296Z,9.90
2018-06-27T07:30:41.471Z,11.60
2018-06-27T07:31:41.661Z,14.70
2018-06-27T07:32:41.459Z,10.90
2018-06-27T07:33:41.432Z,12.60
2018-06-27T07:34:41.615Z,11.50
2018-06-27T07:35:41.403Z,12.10
2018-06-27T07:36:41.384Z,9.70
2018-06-27T07:37:41.372Z,13.10
2018-06-27T07:38:41.353Z,11.20
2018-06-27T07:39:41.542Z,9.20
2018-06-27T07:40:41.528Z,9.10
2018-06-27T07:41:41.514Z,11.90
2018-06-27T07:42:42.714Z,16.10
2018-06-27T07:43:41.287Z,12.30
2018-06-27T07:44:41.476Z,12.00
2018-06-27T07:45:41.461Z,9.10
2018-06-27T07:46:41.246Z,9.70
2018-06-27T07:47:41.435Z,9.50
2018-06-27T07:48:41.422Z,12.80
2018-06-27T07:49:41.220Z,12.60
2018-06-27T07:50:41.397Z,11.60
2018-06-27T07:51:41.178Z,11.60
2018-06-27T07:53:23.530Z,16.70
2018-06-27T07:54:23.518Z,15.40
2018-06-27T07:55:23.510Z,9.10
2018-06-27T07:56:23.289Z,7.70
2018-06-27T07:57:23.477Z,9.70
2018-06-27T07:58:23.465Z,13.90
2018-06-27T07:59:23.251Z,11.50
2018-06-27T08:00:23.240Z,12.50
2018-06-27T08:01:23.231Z,7.90
2018-06-27T08:02:23.216Z,10.30
2018-06-27T08:03:23.204Z,14.60
2018-06-27T08:04:23.189Z,10.20
2018-06-27T08:05:23.180Z,9.20
2018-06-27T08:06:23.164Z,7.20
2018-06-27T08:07:23.152Z,10.00
2018-06-27T08:08:23.343Z,6.20
2018-06-27T08:09:23.129Z,7.70
2018-06-27T08:10:23.332Z,8.50
2018-06-27T08:11:23.306Z,7.50
2018-06-27T08:12:23.387Z,7.20
2018-06-27T08:13:23.284Z,8.60
2018-06-27T08:14:23.271Z,6.60
2018-06-27T08:15:23.261Z,7.00
2018-06-27T08:16:23.044Z,8.50
2018-06-27T08:18:05.661Z,3.90
2018-06-27T08:19:05.185Z,4.40
2018-06-27T08:20:47.690Z,7.90
2018-06-27T08:21:47.526Z,8.90
2018-06-27T08:22:47.311Z,3.00
2018-06-27T08:23:47.296Z,3.30
2018-06-27T08:24:47.284Z,14.10
2018-06-27T08:25:47.272Z,6.20
2018-06-27T08:26:47.258Z,6.20
2018-06-27T08:27:47.247Z,9.40
2018-06-27T08:28:47.236Z,6.60
2018-06-27T08:29:47.222Z,6.30
2018-06-27T08:30:47.217Z,5.80
2018-06-27T08:31:47.200Z,6.40
2018-06-27T08:32:47.185Z,6.20
2018-06-27T08:33:47.169Z,6.10
2018-06-27T08:34:47.363Z,8.10
2018-06-27T08:35:47.347Z,4.60
2018-06-27T08:36:47.340Z,7.80
2018-06-27T08:37:49.943Z,4.70
2018-06-27T08:38:47.308Z,4.00
2018-06-27T08:39:47.097Z,4.30
2018-06-27T08:40:47.098Z,4.90
2018-06-27T08:41:47.071Z,4.30
2018-06-27T08:42:47.055Z,8.50
2018-06-27T08:43:47.314Z,3.40
2018-06-27T08:44:47.027Z,3.40
2018-06-27T08:45:47.013Z,6.00
2018-06-27T08:46:46.999Z,4.70
2018-06-27T08:47:46.988Z,5.60
2018-06-27T08:48:46.981Z,6.70
2018-06-27T08:49:47.766Z,8.00
2018-06-27T08:50:46.953Z,7.10
2018-06-27T08:51:46.935Z,7.30
2018-06-27T08:52:46.923Z,5.30
2018-06-27T08:53:46.909Z,6.80
2018-06-27T08:54:46.899Z,5.60
2018-06-27T08:55:46.882Z,4.20
2018-06-27T08:56:46.870Z,24.80
2018-06-27T08:57:46.856Z,24.30
2018-06-27T08:58:46.857Z,11.10
2018-06-27T08:59:46.836Z,20.30
2018-06-27T09:00:46.822Z,33.60
2018-06-27T09:01:47.017Z,22.10
2018-06-27T09:02:47.000Z,8.70
2018-06-27T09:03:46.986Z,8.50
2018-06-27T09:04:46.974Z,4.50
2018-06-27T09:05:46.972Z,7.20
2018-06-27T09:06:46.950Z,8.40
2018-06-27T09:07:46.808Z,6.90
2018-06-27T09:08:46.928Z,11.00
2018-06-27T09:09:46.915Z,9.10
2018-06-27T09:10:46.902Z,5.40
2018-06-27T09:12:29.061Z,3.90
2018-06-27T09:13:29.044Z,5.90
2018-06-27T09:14:29.035Z,5.90
2018-06-27T09:15:29.025Z,6.30
2018-06-27T09:16:29.008Z,6.50
2018-06-27T09:17:28.994Z,10.30
2018-06-27T09:20:10.938Z,6.90
2018-06-27T09:22:35.455Z,8.80
2018-06-27T09:23:35.438Z,8.00
2018-06-27T09:24:35.428Z,9.50
2018-06-27T09:25:35.417Z,8.80
2018-06-27T09:26:35.202Z,8.80
2018-06-27T09:28:17.557Z,5.60
2018-06-27T10:06:32.102Z,6.70
2018-06-27T10:07:32.089Z,6.50
2018-06-27T10:08:34.496Z,6.40
2018-06-27T10:09:32.065Z,2.70
2018-06-27T10:10:31.852Z,5.90
2018-06-27T10:11:32.044Z,5.00
2018-06-27T10:12:31.831Z,3.60
2018-06-27T10:13:31.822Z,4.80
2018-06-27T10:14:31.815Z,11.70
2018-06-27T10:15:31.824Z,4.20
2018-06-27T10:16:31.794Z,3.00
2018-06-27T10:17:31.788Z,5.70
2018-06-27T10:18:31.976Z,6.20
2018-06-27T10:19:31.963Z,2.30
2018-06-27T10:20:31.956Z,6.60
2018-06-27T10:22:14.117Z,5.90
2018-06-27T10:23:13.903Z,4.80
2018-06-27T10:24:13.891Z,3.10
2018-06-27T10:25:13.881Z,2.80
2018-06-27T10:26:13.871Z,4.60
2018-06-27T10:27:13.865Z,3.50
2018-06-27T10:28:13.852Z,6.40
2018-06-27T10:29:13.845Z,3.00
2018-06-27T10:30:13.836Z,3.80
2018-06-27T10:31:13.825Z,2.80
2018-06-27T10:32:13.821Z,4.00
2018-06-27T10:33:13.807Z,6.70
2018-06-27T10:34:13.795Z,2.40
2018-06-27T10:35:13.784Z,8.70
2018-06-27T10:36:13.784Z,5.10
2018-06-27T10:37:13.765Z,6.20
2018-06-27T10:38:13.757Z,5.80
2018-06-27T10:39:13.747Z,9.30
2018-06-27T10:40:13.737Z,5.90
2018-06-27T10:41:13.740Z,2.60
2018-06-27T10:42:13.722Z,5.30
2018-06-27T10:43:13.712Z,7.40
2018-06-27T10:44:13.709Z,7.30
2018-06-27T10:45:13.690Z,5.60
2018-06-27T10:46:13.684Z,4.10
2018-06-27T10:47:13.674Z,7.60
2018-06-27T10:48:13.664Z,8.60
2018-06-27T10:49:13.686Z,5.20
2018-06-27T10:50:13.648Z,4.90
2018-06-27T10:51:13.638Z,7.10
2018-06-27T10:52:13.626Z,5.00
2018-06-27T10:53:13.620Z,4.90
2018-06-27T10:54:13.617Z,4.70
2018-06-27T10:55:13.598Z,4.10
2018-06-27T10:56:13.641Z,3.70
2018-06-27T10:57:13.576Z,5.70
2018-06-27T10:58:13.566Z,5.70
2018-06-27T10:59:13.555Z,6.00
2018-06-27T11:00:13.547Z,7.20
2018-06-27T11:01:13.632Z,3.10
2018-06-27T11:02:13.529Z,3.30
2018-06-27T11:03:13.523Z,5.20
2018-06-27T11:04:13.511Z,5.20
2018-06-27T11:05:13.509Z,7.70
2018-06-27T11:06:13.489Z,4.10
2018-06-27T11:07:13.477Z,5.50
2018-06-27T11:08:13.468Z,13.50
2018-06-27T11:09:13.458Z,11.50
2018-06-27T11:10:13.450Z,3.70
2018-06-27T11:11:13.441Z,3.20
2018-06-27T11:12:13.427Z,3.50
2018-06-27T11:13:13.420Z,3.10
2018-06-27T11:14:13.434Z,3.60
2018-06-27T11:15:13.398Z,2.60
2018-06-27T11:16:13.389Z,2.90
2018-06-27T11:17:13.379Z,6.00
2018-06-27T11:18:13.367Z,3.90
2018-06-27T11:19:13.356Z,6.70
2018-06-27T11:20:13.346Z,4.60
2018-06-27T11:21:13.340Z,5.40
2018-06-27T11:22:13.328Z,7.40
2018-06-27T11:23:13.325Z,9.30
2018-06-27T11:24:13.309Z,5.40
2018-06-27T11:25:13.297Z,7.00
2018-06-27T11:26:13.288Z,4.20
2018-06-27T11:27:13.277Z,3.20
2018-06-27T11:28:13.268Z,5.30
2018-06-27T11:29:13.262Z,4.80
2018-06-27T11:30:13.258Z,4.60
2018-06-27T11:31:13.242Z,10.30
2018-06-27T11:32:13.235Z,7.80
2018-06-27T11:33:13.222Z,4.00
2018-06-27T11:34:13.220Z,4.30
2018-06-27T11:35:13.203Z,3.70
2018-06-27T11:36:13.195Z,3.20
2018-06-27T11:37:13.187Z,4.20
2018-06-27T11:38:13.189Z,6.20
2018-06-27T11:39:13.167Z,7.00
2018-06-27T11:40:13.163Z,3.40
2018-06-27T11:41:13.149Z,8.10
2018-06-27T11:42:13.141Z,5.00
2018-06-27T11:43:13.131Z,8.50
2018-06-27T11:44:13.127Z,7.40
2018-06-27T11:45:13.109Z,6.10
2018-06-27T11:46:13.100Z,4.70
2018-06-27T11:47:13.093Z,9.50
2018-06-27T11:48:13.109Z,5.80
2018-06-27T11:49:13.074Z,8.80
2018-06-27T11:50:13.065Z,5.50
2018-06-27T11:51:13.054Z,4.00
2018-06-27T11:52:13.046Z,10.00
2018-06-27T11:53:13.099Z,13.20
2018-06-27T11:54:13.025Z,10.50
2018-06-27T11:55:13.042Z,6.10
2018-06-27T11:56:13.010Z,2.80
2018-06-27T11:57:12.996Z,8.70
2018-06-27T11:58:12.989Z,8.90
2018-06-27T11:59:12.984Z,5.80
2018-06-27T12:00:12.970Z,5.40
2018-06-27T12:01:12.962Z,6.50
2018-06-27T12:02:12.959Z,5.10
2018-06-27T12:03:12.944Z,7.50
2018-06-27T12:04:12.935Z,3.60
2018-06-27T12:05:12.924Z,4.60
2018-06-27T12:06:12.915Z,4.90
2018-06-27T12:07:12.904Z,3.20
2018-06-27T12:08:12.899Z,3.20
2018-06-27T12:09:12.888Z,4.40
2018-06-27T12:10:12.880Z,5.30
2018-06-27T12:11:12.871Z,3.90
2018-06-27T12:12:12.860Z,4.70
2018-06-27T12:13:12.857Z,4.70
2018-06-27T12:14:12.849Z,3.10
2018-06-27T12:15:12.833Z,2.80
2018-06-27T12:16:12.823Z,4.80
2018-06-27T12:17:12.812Z,3.40
2018-06-27T12:18:12.804Z,4.00
2018-06-27T12:19:12.794Z,5.10
2018-06-27T12:20:12.790Z,5.20
2018-06-27T12:21:12.783Z,4.60
2018-06-27T12:22:12.776Z,6.00
2018-06-27T12:23:12.763Z,5.40
2018-06-27T12:24:12.754Z,15.40
2018-06-27T12:25:12.742Z,12.20
2018-06-27T12:26:12.741Z,6.60
2018-06-27T12:27:12.724Z,7.00
2018-06-27T12:28:12.714Z,5.20
2018-06-27T12:29:12.702Z,2.40
2018-06-27T12:30:12.693Z,3.40
2018-06-27T12:31:12.683Z,3.70
2018-06-27T12:32:12.675Z,2.90
2018-06-27T12:33:12.676Z,4.90
2018-06-27T12:34:12.659Z,5.30
2018-06-27T12:35:12.649Z,5.90
2018-06-27T12:36:12.642Z,3.90
2018-06-27T12:37:12.627Z,4.20
2018-06-27T12:38:12.621Z,11.40
2018-06-27T12:39:12.616Z,4.40
2018-06-27T12:40:12.605Z,3.70
2018-06-27T12:41:12.593Z,4.40
2018-06-27T12:42:12.589Z,5.20
2018-06-27T12:43:12.572Z,4.80
2018-06-27T12:44:12.570Z,4.90
2018-06-27T12:45:12.554Z,3.40
2018-06-27T12:46:12.545Z,4.20
2018-06-27T12:47:12.534Z,8.30
2018-06-27T12:48:12.525Z,3.30
2018-06-27T12:49:12.513Z,6.00
2018-06-27T12:50:12.514Z,2.60
2018-06-27T12:51:12.494Z,3.60
2018-06-27T12:52:12.485Z,2.60
2018-06-27T12:53:12.476Z,4.30
2018-06-27T12:54:12.469Z,6.40
2018-06-27T12:55:12.459Z,7.00
2018-06-27T12:56:12.446Z,3.60
2018-06-27T12:57:12.437Z,2.70
2018-06-27T12:58:12.430Z,2.70
2018-06-27T12:59:12.424Z,2.60
2018-06-27T13:00:12.418Z,3.20
2018-06-27T13:01:12.396Z,6.90
2018-06-27T13:02:12.387Z,3.80
2018-06-27T13:03:12.380Z,5.90
2018-06-27T13:04:12.370Z,4.20
2018-06-27T13:05:12.372Z,6.30
2018-06-27T13:06:12.348Z,2.20
2018-06-27T13:07:12.382Z,2.90
2018-06-27T13:08:12.329Z,3.00
2018-06-27T13:09:12.433Z,5.20
2018-06-27T13:10:12.308Z,12.10
2018-06-27T13:11:12.296Z,3.50
2018-06-27T13:12:12.286Z,4.00
2018-06-27T13:13:12.278Z,3.20
2018-06-27T13:14:12.270Z,3.60
2018-06-27T13:15:12.257Z,6.40
2018-06-27T13:16:12.247Z,4.40
2018-06-27T13:17:12.237Z,4.20
2018-06-27T13:18:12.228Z,5.40
2018-06-27T13:19:12.219Z,4.20
2018-06-27T13:20:12.205Z,5.80
2018-06-27T13:21:12.193Z,6.20
2018-06-27T13:22:12.183Z,3.30
2018-06-27T13:23:12.176Z,3.50
2018-06-27T13:24:12.161Z,3.70
2018-06-27T13:25:12.157Z,9.90
2018-06-27T13:26:12.143Z,3.50
2018-06-27T13:27:12.133Z,4.40
2018-06-27T13:28:12.121Z,3.90
2018-06-27T13:29:12.110Z,8.40
2018-06-27T13:30:12.099Z,5.90
2018-06-27T13:31:12.089Z,4.10
2018-06-27T13:32:12.079Z,4.60
2018-06-27T13:33:12.071Z,6.50
2018-06-27T13:34:12.064Z,3.50
2018-06-27T13:35:12.050Z,4.60
2018-06-27T13:36:12.043Z,2.30
2018-06-27T13:37:12.035Z,4.10
2018-06-27T13:38:12.023Z,4.70
2018-06-27T13:39:12.009Z,5.40
2018-06-27T13:40:11.999Z,4.40
2018-06-27T13:41:11.991Z,4.80
2018-06-27T13:42:11.985Z,5.90
2018-06-27T13:43:12.012Z,3.20
2018-06-27T13:44:11.961Z,3.00
2018-06-27T13:45:12.112Z,4.30
2018-06-27T13:46:11.945Z,3.90
2018-06-27T13:47:11.930Z,3.80
2018-06-27T13:48:11.920Z,7.30
2018-06-27T13:49:11.910Z,4.10